Terminal Aerodrome Forecast
Issued by NWS

Current Version | Previous Version | Text Only | Print | Product List | Glossary On
Versions: 1 2 3 4 5 6 7 8 9 10 11 12 13 14 15 16 17 18
241
FTUS43 KSGF 011722
TAFBBG
TAF
KBBG 011722Z 0118/0218 28007KT P6SM SCT250
     FM020000 31007KT P6SM SCT250
     FM020700 35005KT P6SM SCT050
     FM020900 01005KT P6SM BKN008
     FM021400 VRB03KT P6SM OVC010
     FM021500 00000KT P6SM OVC015
     FM021700 00000KT P6SM BKN025=

USA.gov is the U.S. government's official web portal to all federal, state and local government web resources and services.